This is the latest recevied weather packets stored in our database for station/object SK4BW-10. If no packets are shown the sender has not sent any weather packets the latest 10 day(s).
| Time | Temp. | Humidity | Pressure | Rain* | Wind** | Luminosity | Snow |
|---|---|---|---|---|---|---|---|
| 1777769700 | 8.89° C | 74% | 1007.6 hPa | - | - | - | - |
| 1777768800 | 7.22° C | 100% | 1007.4 hPa | - | - | - | - |
| 1777767899 | 6.67° C | 100% | 1007.4 hPa | - | - | - | - |
| 1777766998 | 7.22° C | 100% | 1007.3 hPa | - | - | - | - |
| 1777766097 | 7.22° C | 99% | 1007.3 hPa | - | - | - | - |
| 1777765196 | 7.22° C | 100% | 1007.2 hPa | - | - | - | - |
| 1777764295 | 7.22° C | 100% | 1007.2 hPa | - | - | - | - |
| 1777763394 | 7.22° C | 100% | 1007.2 hPa | - | - | - | - |
| 1777762493 | 7.22° C | 99% | 1007 hPa | - | - | - | - |
| 1777761592 | 6.67° C | 100% | 1007 hPa | - | - | - | - |
| 1777760691 | 6.67° C | 100% | 1007.1 hPa | - | - | - | - |
| 1777759790 | 6.67° C | 100% | 1007.1 hPa | - | - | - | - |
| 1777758889 | 6.67° C | 100% | 1007 hPa | - | - | - | - |
| 1777757988 | 6.67° C | 100% | 1007.2 hPa | - | - | - | - |
| 1777757087 | 6.67° C | 100% | 1007.3 hPa | - | - | - | - |
| 1777756185 | 6.67° C | 100% | 1007.3 hPa | - | - | - | - |
| 1777755284 | 6.67° C | 100% | 1007.3 hPa | - | - | - | - |
| 1777754383 | 7.22° C | 97% | 1007.3 hPa | - | - | - | - |
| 1777753482 | 7.22° C | 94% | 1007.3 hPa | - | - | - | - |
| 1777752581 | 7.78° C | 89% | 1007.3 hPa | - | - | - | - |
| 1777751680 | 8.33° C | 83% | 1007.3 hPa | - | - | - | - |
| 1777750780 | 8.33° C | 80% | 1007.2 hPa | - | - | - | - |
| 1777749879 | 8.89° C | 79% | 1007.3 hPa | - | - | - | - |
| 1777748979 | 8.89° C | 75% | 1007.6 hPa | - | - | - | - |
| 1777748078 | 10° C | 71% | 1007.3 hPa | - | - | - | - |
* Rain since midnight (hover to see other rain measurements)
** Current wind speed in m/s (hover to see current wind gust speed)